sensor_id;sensor_type;location;lat;lon;timestamp;pressure;altitude;pressure_sealevel;temperature;humidity
71057;BME280;58380;48.312;9.246;2023-05-09T07:42:00;93632.09;;;12.29;100.00
71057;BME280;58380;48.312;9.246;2023-05-09T07:44:25;93630.25;;;12.35;100.00
71057;BME280;58380;48.312;9.246;2023-05-09T07:46:50;93626.78;;;12.44;100.00
71057;BME280;58380;48.312;9.246;2023-05-09T07:49:16;93607.50;;;12.28;100.00
71057;BME280;58380;48.312;9.246;2023-05-09T07:51:41;93620.72;;;12.39;100.00
71057;BME280;58380;48.312;9.246;2023-05-09T07:54:07;93612.25;;;12.37;100.00
71057;BME280;58380;48.312;9.246;2023-05-09T07:56:35;93609.06;;;12.29;100.00
71057;BME280;58380;48.312;9.246;2023-05-09T07:59:01;93590.56;;;12.19;100.00
71057;BME280;58380;48.312;9.246;2023-05-09T08:01:27;93606.94;;;12.37;100.00
71057;BME280;58380;48.312;9.246;2023-05-09T08:03:53;93621.97;;;12.57;100.00
71057;BME280;58380;48.312;9.246;2023-05-09T08:06:18;93610.34;;;12.52;100.00
71057;BME280;58380;48.312;9.246;2023-05-09T08:08:44;93598.97;;;12.47;100.00
71057;BME280;58380;48.312;9.246;2023-05-09T08:11:09;93595.00;;;12.44;100.00
71057;BME280;58380;48.312;9.246;2023-05-09T08:13:35;93584.41;;;12.44;100.00
71057;BME280;58380;48.312;9.246;2023-05-09T08:16:00;93599.97;;;12.66;100.00
71057;BME280;58380;48.312;9.246;2023-05-09T08:18:26;93609.94;;;12.85;100.00
71057;BME280;58380;48.312;9.246;2023-05-09T08:20:51;93599.06;;;12.91;100.00
71057;BME280;58380;48.312;9.246;2023-05-09T08:23:17;93550.97;;;12.69;100.00
71057;BME280;58380;48.312;9.246;2023-05-09T08:25:42;93580.25;;;12.93;100.00
71057;BME280;58380;48.312;9.246;2023-05-09T08:28:08;93599.50;;;13.09;100.00
71057;BME280;58380;48.312;9.246;2023-05-09T08:30:33;93579.69;;;13.01;100.00
71057;BME280;58380;48.312;9.246;2023-05-09T08:32:59;93590.81;;;12.98;100.00
71057;BME280;58380;48.312;9.246;2023-05-09T08:35:24;93565.72;;;12.80;100.00
71057;BME280;58380;48.312;9.246;2023-05-09T08:37:50;93552.56;;;12.65;100.00
71057;BME280;58380;48.312;9.246;2023-05-09T08:40:15;93559.16;;;12.72;100.00
71057;BME280;58380;48.312;9.246;2023-05-09T08:42:43;93570.69;;;12.97;100.00
71057;BME280;58380;48.312;9.246;2023-05-09T08:45:11;93570.34;;;13.09;100.00
71057;BME280;58380;48.312;9.246;2023-05-09T08:47:41;93556.28;;;13.13;100.00
71057;BME280;58380;48.312;9.246;2023-05-09T08:50:08;93573.16;;;13.23;100.00
71057;BME280;58380;48.312;9.246;2023-05-09T08:52:36;93573.97;;;13.28;100.00
71057;BME280;58380;48.312;9.246;2023-05-09T08:55:05;93587.13;;;13.44;100.00
71057;BME280;58380;48.312;9.246;2023-05-09T08:57:37;93537.69;;;13.19;100.00
71057;BME280;58380;48.312;9.246;2023-05-09T09:00:03;93595.69;;;13.70;100.00
71057;BME280;58380;48.312;9.246;2023-05-09T09:02:35;93523.31;;;13.64;100.00
71057;BME280;58380;48.312;9.246;2023-05-09T09:05:07;93573.97;;;13.97;100.00
71057;BME280;58380;48.312;9.246;2023-05-09T09:07:35;93506.41;;;13.55;100.00
71057;BME280;58380;48.312;9.246;2023-05-09T09:10:02;93534.53;;;13.85;100.00
71057;BME280;58380;48.312;9.246;2023-05-09T09:12:31;93558.75;;;14.32;100.00
71057;BME280;58380;48.312;9.246;2023-05-09T09:15:04;93575.28;;;14.48;100.00
71057;BME280;58380;48.312;9.246;2023-05-09T09:17:32;93436.25;;;13.71;100.00
71057;BME280;58380;48.312;9.246;2023-05-09T09:20:02;93491.13;;;14.24;100.00
71057;BME280;58380;48.312;9.246;2023-05-09T09:22:33;93486.56;;;14.06;100.00
71057;BME280;58380;48.312;9.246;2023-05-09T09:25:00;93522.78;;;14.20;100.00
71057;BME280;58380;48.312;9.246;2023-05-09T09:27:28;93543.72;;;14.22;100.00
71057;BME280;58380;48.312;9.246;2023-05-09T09:30:05;93556.47;;;14.20;100.00
71057;BME280;58380;48.312;9.246;2023-05-09T09:32:32;93471.31;;;13.68;100.00
71057;BME280;58380;48.312;9.246;2023-05-09T09:35:05;93537.47;;;14.13;100.00
71057;BME280;58380;48.312;9.246;2023-05-09T09:37:36;93536.13;;;14.10;100.00
71057;BME280;58380;48.312;9.246;2023-05-09T09:40:09;93466.63;;;13.84;100.00
71057;BME280;58380;48.312;9.246;2023-05-09T09:42:43;93512.69;;;14.17;100.00
71057;BME280;58380;48.312;9.246;2023-05-09T09:45:15;93517.91;;;14.28;100.00
71057;BME280;58380;48.312;9.246;2023-05-09T09:47:43;93519.50;;;14.29;100.00
71057;BME280;58380;48.312;9.246;2023-05-09T09:50:12;93477.19;;;14.13;100.00
71057;BME280;58380;48.312;9.246;2023-05-09T09:52:44;93444.22;;;13.95;100.00
71057;BME280;58380;48.312;9.246;2023-05-09T09:55:14;93394.13;;;13.65;100.00
71057;BME280;58380;48.312;9.246;2023-05-09T09:57:40;93511.22;;;14.30;100.00
71057;BME280;58380;48.312;9.246;2023-05-09T10:00:10;93463.75;;;14.05;99.72
71057;BME280;58380;48.312;9.246;2023-05-09T10:02:57;93494.97;;;14.37;98.60
71057;BME280;58380;48.312;9.246;2023-05-09T10:05:25;93491.31;;;14.33;97.98
71057;BME280;58380;48.312;9.246;2023-05-09T10:07:54;93479.47;;;14.44;99.16
71057;BME280;58380;48.312;9.246;2023-05-09T10:10:29;93441.00;;;14.41;98.20
71057;BME280;58380;48.312;9.246;2023-05-09T10:13:01;93428.75;;;14.64;96.06
71057;BME280;58380;48.312;9.246;2023-05-09T10:15:30;93336.00;;;14.30;94.55
71057;BME280;58380;48.312;9.246;2023-05-09T10:17:58;93427.16;;;15.01;92.26
71057;BME280;58380;48.312;9.246;2023-05-09T10:20:27;93457.84;;;15.45;88.29
71057;BME280;58380;48.312;9.246;2023-05-09T10:22:55;93410.09;;;15.21;87.57
71057;BME280;58380;48.312;9.246;2023-05-09T10:25:38;93460.22;;;15.61;83.78
71057;BME280;58380;48.312;9.246;2023-05-09T10:28:22;93380.50;;;15.09;84.13
71057;BME280;58380;48.312;9.246;2023-05-09T10:31:24;93386.31;;;15.44;85.14
71057;BME280;58380;48.312;9.246;2023-05-09T10:33:52;93430.72;;;15.76;83.87
71057;BME280;58380;48.312;9.246;2023-05-09T10:36:22;93399.72;;;15.66;87.14
71057;BME280;58380;48.312;9.246;2023-05-09T10:38:49;93445.31;;;16.06;89.56
71057;BME280;58380;48.312;9.246;2023-05-09T10:41:21;93443.34;;;15.98;83.00
71057;BME280;58380;48.312;9.246;2023-05-09T10:43:48;93364.84;;;15.54;84.67
71057;BME280;58380;48.312;9.246;2023-05-09T10:46:14;93433.19;;;16.14;81.47
71057;BME280;58380;48.312;9.246;2023-05-09T10:48:42;93363.69;;;15.88;86.01
71057;BME280;58380;48.312;9.246;2023-05-09T10:51:09;93387.84;;;16.05;79.47
71057;BME280;58380;48.312;9.246;2023-05-09T10:53:44;93360.78;;;16.12;84.32
71057;BME280;58380;48.312;9.246;2023-05-09T10:56:22;93419.81;;;16.55;78.65
71057;BME280;58380;48.312;9.246;2023-05-09T10:58:57;93383.31;;;16.42;80.02
71057;BME280;58380;48.312;9.246;2023-05-09T11:04:10;93357.44;;;16.56;86.29
71057;BME280;58380;48.312;9.246;2023-05-09T11:06:46;93388.88;;;16.82;77.79
71057;BME280;58380;48.312;9.246;2023-05-09T11:12:12;93382.25;;;17.02;84.25
71057;BME280;58380;48.312;9.246;2023-05-09T11:15:22;93388.41;;;17.25;83.16
71057;BME280;58380;48.312;9.246;2023-05-09T11:17:30;93323.19;;;17.09;81.25
71057;BME280;58380;48.312;9.246;2023-05-09T11:20:04;93380.09;;;17.58;82.50
71057;BME280;58380;48.312;9.246;2023-05-09T11:22:43;93336.97;;;17.42;80.15
71057;BME280;58380;48.312;9.246;2023-05-09T11:25:12;93317.66;;;17.36;79.72
71057;BME280;58380;48.312;9.246;2023-05-09T11:27:48;93333.59;;;17.59;85.45
71057;BME280;58380;48.312;9.246;2023-05-09T11:30:16;93322.78;;;17.24;81.25
71057;BME280;58380;48.312;9.246;2023-05-09T11:33:06;93338.75;;;17.46;80.32
71057;BME280;58380;48.312;9.246;2023-05-09T11:35:45;93328.31;;;17.67;77.14
71057;BME280;58380;48.312;9.246;2023-05-09T11:38:19;93318.34;;;17.91;79.29
71057;BME280;58380;48.312;9.246;2023-05-09T11:40:47;93321.84;;;18.08;78.27
71057;BME280;58380;48.312;9.246;2023-05-09T11:43:13;93294.19;;;17.96;76.74
71057;BME280;58380;48.312;9.246;2023-05-09T11:45:39;93338.53;;;18.23;75.85
71057;BME280;58380;48.312;9.246;2023-05-09T11:48:08;93247.44;;;17.58;76.38
71057;BME280;58380;48.312;9.246;2023-05-09T11:50:34;93232.72;;;17.30;79.09
71057;BME280;58380;48.312;9.246;2023-05-09T11:53:00;93242.41;;;17.17;74.81
71057;BME280;58380;48.312;9.246;2023-05-09T11:55:25;93240.91;;;17.33;79.43
71057;BME280;58380;48.312;9.246;2023-05-09T11:57:54;93265.63;;;17.56;76.86
71057;BME280;58380;48.312;9.246;2023-05-09T12:00:23;93308.50;;;18.08;74.80
71057;BME280;58380;48.312;9.246;2023-05-09T12:02:51;93304.44;;;18.20;75.50
71057;BME280;58380;48.312;9.246;2023-05-09T12:05:18;93303.34;;;18.38;76.53
71057;BME280;58380;48.312;9.246;2023-05-09T12:07:45;93277.56;;;18.33;73.83
71057;BME280;58380;48.312;9.246;2023-05-09T12:10:13;93256.19;;;18.07;75.16
71057;BME280;58380;48.312;9.246;2023-05-09T12:12:47;93261.97;;;18.01;73.19
71057;BME280;58380;48.312;9.246;2023-05-09T12:15:14;93274.19;;;17.84;73.70
71057;BME280;58380;48.312;9.246;2023-05-09T12:17:41;93259.25;;;17.75;74.72
71057;BME280;58380;48.312;9.246;2023-05-09T12:20:08;93276.28;;;18.14;75.63
71057;BME280;58380;48.312;9.246;2023-05-09T12:22:34;93280.09;;;18.47;75.16
71057;BME280;58380;48.312;9.246;2023-05-09T12:25:05;93278.50;;;18.55;74.00
71057;BME280;58380;48.312;9.246;2023-05-09T12:27:34;93207.94;;;18.13;68.02
71057;BME280;58380;48.312;9.246;2023-05-09T12:30:01;93249.56;;;18.14;72.25
71057;BME280;58380;48.312;9.246;2023-05-09T12:32:35;93221.59;;;17.94;74.43
71057;BME280;58380;48.312;9.246;2023-05-09T12:35:02;93252.84;;;18.02;75.36
71057;BME280;58380;48.312;9.246;2023-05-09T12:37:29;93245.47;;;17.99;73.73
71057;BME280;58380;48.312;9.246;2023-05-09T12:40:09;93246.25;;;17.91;73.29
71057;BME280;58380;48.312;9.246;2023-05-09T12:42:42;93240.75;;;18.04;74.94
71057;BME280;58380;48.312;9.246;2023-05-09T12:45:09;93230.25;;;18.08;73.91
71057;BME280;58380;48.312;9.246;2023-05-09T12:47:36;93235.28;;;18.18;70.44
71057;BME280;58380;48.312;9.246;2023-05-09T12:50:04;93230.41;;;18.38;72.71
71057;BME280;58380;48.312;9.246;2023-05-09T12:52:36;93220.19;;;18.40;70.15
71057;BME280;58380;48.312;9.246;2023-05-09T12:55:11;93183.75;;;18.09;73.14
71057;BME280;58380;48.312;9.246;2023-05-09T12:57:38;93228.19;;;18.31;72.13
71057;BME280;58380;48.312;9.246;2023-05-09T13:00:07;93227.72;;;18.46;73.69
71057;BME280;58380;48.312;9.246;2023-05-09T13:02:38;93221.28;;;18.39;71.19
71057;BME280;58380;48.312;9.246;2023-05-09T13:05:10;93217.81;;;18.47;70.30
71057;BME280;58380;48.312;9.246;2023-05-09T13:10:13;93205.09;;;18.52;70.09
71057;BME280;58380;48.312;9.246;2023-05-09T13:12:45;93205.84;;;18.44;73.47
71057;BME280;58380;48.312;9.246;2023-05-09T13:15:16;93200.38;;;18.41;73.16
71057;BME280;58380;48.312;9.246;2023-05-09T13:17:47;93197.09;;;18.26;70.99
71057;BME280;58380;48.312;9.246;2023-05-09T13:20:14;93163.63;;;18.20;72.42
71057;BME280;58380;48.312;9.246;2023-05-09T13:22:41;93188.25;;;18.52;69.44
71057;BME280;58380;48.312;9.246;2023-05-09T13:25:08;93172.66;;;18.54;66.65
71057;BME280;58380;48.312;9.246;2023-05-09T13:27:34;93174.72;;;18.57;69.25
71057;BME280;58380;48.312;9.246;2023-05-09T13:29:59;93139.72;;;18.24;68.15
71057;BME280;58380;48.312;9.246;2023-05-09T13:32:25;93172.84;;;18.58;67.15
71057;BME280;58380;48.312;9.246;2023-05-09T13:34:51;93174.38;;;18.67;69.41
71057;BME280;58380;48.312;9.246;2023-05-09T13:37:17;93177.06;;;18.67;70.65
71057;BME280;58380;48.312;9.246;2023-05-09T13:39:42;93164.78;;;18.66;70.02
71057;BME280;58380;48.312;9.246;2023-05-09T13:42:08;93166.38;;;18.67;69.90
71057;BME280;58380;48.312;9.246;2023-05-09T13:44:33;93147.31;;;18.69;66.19
71057;BME280;58380;48.312;9.246;2023-05-09T13:46:58;93134.16;;;18.55;68.80
71057;BME280;58380;48.312;9.246;2023-05-09T13:49:25;93153.16;;;18.80;67.20
71057;BME280;58380;48.312;9.246;2023-05-09T13:51:52;93141.38;;;19.02;68.89
71057;BME280;58380;48.312;9.246;2023-05-09T13:54:19;93123.56;;;18.85;64.15
71057;BME280;58380;48.312;9.246;2023-05-09T13:56:47;93144.63;;;19.16;64.55
71057;BME280;58380;48.312;9.246;2023-05-09T13:59:13;93139.09;;;19.21;67.20
71057;BME280;58380;48.312;9.246;2023-05-09T14:01:38;93145.69;;;18.94;68.34
71057;BME280;58380;48.312;9.246;2023-05-09T14:04:04;93143.66;;;18.91;69.87
71057;BME280;58380;48.312;9.246;2023-05-09T14:06:29;93106.69;;;18.84;68.90
71057;BME280;58380;48.312;9.246;2023-05-09T14:08:55;93122.16;;;18.79;68.10
71057;BME280;58380;48.312;9.246;2023-05-09T14:11:21;93124.03;;;18.78;64.73
71057;BME280;58380;48.312;9.246;2023-05-09T14:13:46;93084.63;;;18.58;67.80
71057;BME280;58380;48.312;9.246;2023-05-09T14:16:11;93107.53;;;18.76;69.10
71057;BME280;58380;48.312;9.246;2023-05-09T14:18:37;93102.81;;;18.73;64.94
71057;BME280;58380;48.312;9.246;2023-05-09T14:21:03;93116.16;;;18.82;62.15
71057;BME280;58380;48.312;9.246;2023-05-09T14:23:28;93088.66;;;18.72;66.70
71057;BME280;58380;48.312;9.246;2023-05-09T14:25:54;93062.34;;;18.45;68.23
71057;BME280;58380;48.312;9.246;2023-05-09T14:28:19;93106.56;;;18.81;70.59
71057;BME280;58380;48.312;9.246;2023-05-09T14:30:45;93101.09;;;18.68;66.38
71057;BME280;58380;48.312;9.246;2023-05-09T14:33:10;93084.94;;;18.56;68.46
71057;BME280;58380;48.312;9.246;2023-05-09T14:35:35;93083.50;;;18.59;68.68
71057;BME280;58380;48.312;9.246;2023-05-09T14:38:01;93011.88;;;18.05;70.99
71057;BME280;58380;48.312;9.246;2023-05-09T14:40:27;93083.56;;;18.50;70.97
71057;BME280;58380;48.312;9.246;2023-05-09T14:42:57;93065.81;;;18.37;70.37
71057;BME280;58380;48.312;9.246;2023-05-09T14:45:27;93038.84;;;18.21;65.33
71057;BME280;58380;48.312;9.246;2023-05-09T14:47:53;93062.03;;;18.46;67.58
71057;BME280;58380;48.312;9.246;2023-05-09T14:50:19;93067.53;;;18.50;68.23
71057;BME280;58380;48.312;9.246;2023-05-09T14:52:46;93078.03;;;18.55;67.94
71057;BME280;58380;48.312;9.246;2023-05-09T14:55:12;93076.66;;;18.40;69.24
71057;BME280;58380;48.312;9.246;2023-05-09T14:57:38;93063.03;;;18.33;71.43
71057;BME280;58380;48.312;9.246;2023-05-09T15:00:04;93065.53;;;18.29;71.61
71057;BME280;58380;48.312;9.246;2023-05-09T15:02:30;93031.72;;;17.95;71.49
71057;BME280;58380;48.312;9.246;2023-05-09T15:04:55;93044.41;;;17.98;72.63
71057;BME280;58380;48.312;9.246;2023-05-09T15:07:20;93027.63;;;17.89;76.07
71057;BME280;58380;48.312;9.246;2023-05-09T15:09:46;93062.91;;;18.12;71.64
71057;BME280;58380;48.312;9.246;2023-05-09T15:12:11;93037.56;;;17.80;72.61
71057;BME280;58380;48.312;9.246;2023-05-09T15:14:36;93041.63;;;17.86;73.43
71057;BME280;58380;48.312;9.246;2023-05-09T15:17:03;93049.31;;;17.87;71.57
71057;BME280;58380;48.312;9.246;2023-05-09T15:19:29;93045.84;;;17.78;70.50
71057;BME280;58380;48.312;9.246;2023-05-09T15:21:57;93044.88;;;17.92;72.39
71057;BME280;58380;48.312;9.246;2023-05-09T15:24:23;93006.25;;;17.72;72.79
71057;BME280;58380;48.312;9.246;2023-05-09T15:26:49;93005.78;;;17.69;73.08
71057;BME280;58380;48.312;9.246;2023-05-09T15:29:14;93048.03;;;18.02;72.25
71057;BME280;58380;48.312;9.246;2023-05-09T15:31:40;93032.81;;;17.85;73.40
71057;BME280;58380;48.312;9.246;2023-05-09T15:34:05;93017.41;;;17.74;75.28
71057;BME280;58380;48.312;9.246;2023-05-09T15:36:31;93020.41;;;17.63;74.61
71057;BME280;58380;48.312;9.246;2023-05-09T15:38:58;93027.03;;;17.57;72.89
71057;BME280;58380;48.312;9.246;2023-05-09T15:41:24;93034.25;;;17.65;73.77
71057;BME280;58380;48.312;9.246;2023-05-09T15:43:50;93012.28;;;17.51;73.75
71057;BME280;58380;48.312;9.246;2023-05-09T15:46:16;93032.19;;;17.54;72.81
71057;BME280;58380;48.312;9.246;2023-05-09T15:48:42;93015.13;;;17.37;71.36
71057;BME280;58380;48.312;9.246;2023-05-09T15:51:07;92985.13;;;17.14;73.61
71057;BME280;58380;48.312;9.246;2023-05-09T15:53:33;93028.75;;;17.44;75.09
71057;BME280;58380;48.312;9.246;2023-05-09T15:55:59;93001.13;;;17.14;77.57
71057;BME280;58380;48.312;9.246;2023-05-09T15:58:25;93008.06;;;17.15;76.42
71057;BME280;58380;48.312;9.246;2023-05-09T16:00:51;93019.19;;;17.17;76.14
71057;BME280;58380;48.312;9.246;2023-05-09T16:03:17;92991.88;;;17.03;79.20
71057;BME280;58380;48.312;9.246;2023-05-09T16:05:42;93008.53;;;17.17;79.72
71057;BME280;58380;48.312;9.246;2023-05-09T16:08:08;92996.91;;;17.13;79.43
71057;BME280;58380;48.312;9.246;2023-05-09T16:10:33;92976.53;;;17.00;77.50
71057;BME280;58380;48.312;9.246;2023-05-09T16:12:59;93003.97;;;17.18;78.47
71057;BME280;58380;48.312;9.246;2023-05-09T16:15:24;92983.88;;;17.03;80.00
71057;BME280;58380;48.312;9.246;2023-05-09T16:17:49;92966.31;;;16.93;80.58
71057;BME280;58380;48.312;9.246;2023-05-09T16:20:15;93000.19;;;17.19;82.12
71057;BME280;58380;48.312;9.246;2023-05-09T16:22:40;93010.41;;;17.25;80.68
71057;BME280;58380;48.312;9.246;2023-05-09T16:25:06;92978.56;;;17.03;80.65
71057;BME280;58380;48.312;9.246;2023-05-09T16:27:32;93006.63;;;17.18;81.88
71057;BME280;58380;48.312;9.246;2023-05-09T16:29:58;92997.69;;;17.14;81.79
71057;BME280;58380;48.312;9.246;2023-05-09T16:32:23;93002.88;;;17.19;80.10
71057;BME280;58380;48.312;9.246;2023-05-09T16:34:49;93002.88;;;17.19;79.85
71057;BME280;58380;48.312;9.246;2023-05-09T16:37:14;92978.56;;;17.03;79.97
71057;BME280;58380;48.312;9.246;2023-05-09T16:39:40;92991.09;;;17.11;80.95
71057;BME280;58380;48.312;9.246;2023-05-09T16:42:05;92974.47;;;16.88;81.42
71057;BME280;58380;48.312;9.246;2023-05-09T16:44:31;92994.06;;;17.01;81.50
71057;BME280;58380;48.312;9.246;2023-05-09T16:46:56;92977.94;;;16.97;81.85
71057;BME280;58380;48.312;9.246;2023-05-09T16:49:22;92990.63;;;17.09;82.84
71057;BME280;58380;48.312;9.246;2023-05-09T16:51:47;92968.19;;;16.84;79.68
71057;BME280;58380;48.312;9.246;2023-05-09T16:54:13;92971.19;;;16.83;79.64
71057;BME280;58380;48.312;9.246;2023-05-09T16:56:38;92954.03;;;16.66;80.04
71057;BME280;58380;48.312;9.246;2023-05-09T16:59:04;92984.94;;;16.85;73.89
71057;BME280;58380;48.312;9.246;2023-05-09T17:01:29;92990.47;;;16.88;74.51
71057;BME280;58380;48.312;9.246;2023-05-09T17:03:55;92931.59;;;16.41;71.24
71057;BME280;58380;48.312;9.246;2023-05-09T17:06:20;92962.31;;;16.56;70.93
71057;BME280;58380;48.312;9.246;2023-05-09T17:08:46;92980.50;;;16.54;71.48
71057;BME280;58380;48.312;9.246;2023-05-09T17:11:12;92921.47;;;16.12;70.07
71057;BME280;58380;48.312;9.246;2023-05-09T17:13:38;92979.22;;;16.43;70.63
71057;BME280;58380;48.312;9.246;2023-05-09T17:16:04;92986.75;;;16.41;70.64
71057;BME280;58380;48.312;9.246;2023-05-09T17:18:31;92972.44;;;16.28;71.61
71057;BME280;58380;48.312;9.246;2023-05-09T17:20:56;92918.34;;;15.70;72.72
71057;BME280;58380;48.312;9.246;2023-05-09T17:23:22;92979.03;;;15.90;74.59
71057;BME280;58380;48.312;9.246;2023-05-09T17:25:48;92997.00;;;15.85;76.52
71057;BME280;58380;48.312;9.246;2023-05-09T17:28:14;92985.41;;;15.58;79.93
71057;BME280;58380;48.312;9.246;2023-05-09T17:30:40;92999.13;;;15.51;83.41
71057;BME280;58380;48.312;9.246;2023-05-09T17:33:05;93003.69;;;15.28;82.47
71057;BME280;58380;48.312;9.246;2023-05-09T17:35:31;93000.28;;;15.14;84.68
71057;BME280;58380;48.312;9.246;2023-05-09T17:37:56;93022.16;;;15.11;86.79
71057;BME280;58380;48.312;9.246;2023-05-09T17:40:22;92985.81;;;14.70;87.40
71057;BME280;58380;48.312;9.246;2023-05-09T17:42:48;93010.66;;;14.65;87.65
71057;BME280;58380;48.312;9.246;2023-05-09T17:45:13;92987.03;;;14.36;88.28
71057;BME280;58380;48.312;9.246;2023-05-09T17:47:39;93011.22;;;14.49;88.83
71057;BME280;58380;48.312;9.246;2023-05-09T17:50:05;92991.78;;;14.26;89.64
71057;BME280;58380;48.312;9.246;2023-05-09T17:52:34;93006.22;;;14.19;89.23
71057;BME280;58380;48.312;9.246;2023-05-09T17:55:01;92963.34;;;13.85;89.61
71057;BME280;58380;48.312;9.246;2023-05-09T17:57:28;93032.16;;;14.22;89.82
71057;BME280;58380;48.312;9.246;2023-05-09T17:59:53;93018.00;;;14.13;89.59
71057;BME280;58380;48.312;9.246;2023-05-09T18:02:19;93013.59;;;14.09;89.44
71057;BME280;58380;48.312;9.246;2023-05-09T18:04:49;93007.59;;;14.03;92.19
71057;BME280;58380;48.312;9.246;2023-05-09T18:07:16;92968.34;;;13.72;93.04
71057;BME280;58380;48.312;9.246;2023-05-09T18:09:41;93000.69;;;13.88;93.26
71057;BME280;58380;48.312;9.246;2023-05-09T18:12:07;93000.56;;;13.79;92.29
71057;BME280;58380;48.312;9.246;2023-05-09T18:14:34;93022.41;;;13.90;92.16
71057;BME280;58380;48.312;9.246;2023-05-09T18:17:00;93022.19;;;13.87;92.16
71057;BME280;58380;48.312;9.246;2023-05-09T18:19:25;92995.81;;;13.63;93.78
71057;BME280;58380;48.312;9.246;2023-05-09T18:21:51;93023.25;;;13.72;94.48
71057;BME280;58380;48.312;9.246;2023-05-09T18:24:16;92988.22;;;13.42;94.55
71057;BME280;58380;48.312;9.246;2023-05-09T18:26:44;93016.44;;;13.52;94.32
71057;BME280;58380;48.312;9.246;2023-05-09T18:29:12;93007.00;;;13.46;95.98
71057;BME280;58380;48.312;9.246;2023-05-09T18:31:37;93000.28;;;13.34;96.75
71057;BME280;58380;48.312;9.246;2023-05-09T18:34:04;93029.19;;;13.50;97.99
71057;BME280;58380;48.312;9.246;2023-05-09T18:36:30;93010.97;;;13.29;97.19
71057;BME280;58380;48.312;9.246;2023-05-09T18:38:55;93026.50;;;13.36;98.38
71057;BME280;58380;48.312;9.246;2023-05-09T18:41:21;93038.56;;;13.28;98.10
71057;BME280;58380;48.312;9.246;2023-05-09T18:43:48;93016.31;;;13.05;97.89
71057;BME280;58380;48.312;9.246;2023-05-09T18:46:15;93020.19;;;12.94;98.86
71057;BME280;58380;48.312;9.246;2023-05-09T18:48:45;93045.19;;;13.07;100.00
71057;BME280;58380;48.312;9.246;2023-05-09T18:51:14;93040.22;;;13.00;100.00
71057;BME280;58380;48.312;9.246;2023-05-09T18:53:41;93007.25;;;12.73;100.00
71057;BME280;58380;48.312;9.246;2023-05-09T18:56:06;93040.09;;;12.91;100.00
71057;BME280;58380;48.312;9.246;2023-05-09T18:58:33;92974.75;;;12.49;100.00
71057;BME280;58380;48.312;9.246;2023-05-09T19:00:59;93002.09;;;12.63;100.00
71057;BME280;58380;48.312;9.246;2023-05-09T19:03:25;93023.13;;;12.73;100.00
71057;BME280;58380;48.312;9.246;2023-05-09T19:05:51;93023.72;;;12.70;100.00
71057;BME280;58380;48.312;9.246;2023-05-09T19:08:17;93044.09;;;12.70;100.00
71057;BME280;58380;48.312;9.246;2023-05-09T19:10:42;93028.78;;;12.43;100.00
71057;BME280;58380;48.312;9.246;2023-05-09T19:13:08;93053.00;;;12.55;100.00
71057;BME280;58380;48.312;9.246;2023-05-09T19:15:34;93057.38;;;12.46;100.00
71057;BME280;58380;48.312;9.246;2023-05-09T19:18:00;93041.56;;;12.41;100.00
71057;BME280;58380;48.312;9.246;2023-05-09T19:20:26;93058.72;;;12.43;100.00
71057;BME280;58380;48.312;9.246;2023-05-09T19:22:53;93057.81;;;12.29;100.00
71057;BME280;58380;48.312;9.246;2023-05-09T19:25:19;93058.03;;;12.33;100.00
71057;BME280;58380;48.312;9.246;2023-05-09T19:27:46;93052.47;;;12.34;100.00
71057;BME280;58380;48.312;9.246;2023-05-09T19:30:12;93062.22;;;12.39;100.00
71057;BME280;58380;48.312;9.246;2023-05-09T19:32:41;93068.03;;;12.41;100.00
71057;BME280;58380;48.312;9.246;2023-05-09T19:35:07;93063.22;;;12.43;100.00
71057;BME280;58380;48.312;9.246;2023-05-09T19:37:35;93061.53;;;12.28;100.00
71057;BME280;58380;48.312;9.246;2023-05-09T19:40:02;93050.09;;;12.33;100.00
71057;BME280;58380;48.312;9.246;2023-05-09T19:42:32;93073.78;;;12.43;100.00
71057;BME280;58380;48.312;9.246;2023-05-09T19:44:59;93071.44;;;12.41;100.00
71057;BME280;58380;48.312;9.246;2023-05-09T19:47:24;93000.03;;;11.93;100.00
71057;BME280;58380;48.312;9.246;2023-05-09T19:49:50;93052.13;;;12.17;100.00
71057;BME280;58380;48.312;9.246;2023-05-09T19:52:15;93078.94;;;12.34;100.00
71057;BME280;58380;48.312;9.246;2023-05-09T19:54:42;93061.09;;;12.21;100.00
71057;BME280;58380;48.312;9.246;2023-05-09T19:57:07;93075.25;;;12.30;100.00
71057;BME280;58380;48.312;9.246;2023-05-09T19:59:33;93056.59;;;12.21;100.00
71057;BME280;58380;48.312;9.246;2023-05-09T20:01:58;93051.28;;;12.21;100.00
71057;BME280;58380;48.312;9.246;2023-05-09T20:04:23;93022.63;;;12.04;100.00
71057;BME280;58380;48.312;9.246;2023-05-09T20:06:49;93046.56;;;12.18;100.00
71057;BME280;58380;48.312;9.246;2023-05-09T20:09:15;93059.44;;;12.25;100.00
71057;BME280;58380;48.312;9.246;2023-05-09T20:11:45;93051.06;;;12.18;100.00
71057;BME280;58380;48.312;9.246;2023-05-09T20:14:11;93042.91;;;12.14;100.00
71057;BME280;58380;48.312;9.246;2023-05-09T20:16:37;93052.41;;;12.15;100.00
71057;BME280;58380;48.312;9.246;2023-05-09T20:19:02;93045.59;;;12.09;100.00
71057;BME280;58380;48.312;9.246;2023-05-09T20:21:30;93033.00;;;12.01;100.00
71057;BME280;58380;48.312;9.246;2023-05-09T20:23:56;93055.41;;;12.08;100.00
71057;BME280;58380;48.312;9.246;2023-05-09T20:26:21;93034.84;;;12.00;100.00
71057;BME280;58380;48.312;9.246;2023-05-09T20:28:47;93037.47;;;12.00;100.00
71057;BME280;58380;48.312;9.246;2023-05-09T20:31:12;93053.34;;;12.00;100.00
71057;BME280;58380;48.312;9.246;2023-05-09T20:33:37;93049.91;;;12.00;100.00
71057;BME280;58380;48.312;9.246;2023-05-09T20:36:04;93045.19;;;11.97;100.00
71057;BME280;58380;48.312;9.246;2023-05-09T20:38:34;93010.75;;;11.73;100.00
71057;BME280;58380;48.312;9.246;2023-05-09T20:41:00;93031.78;;;11.88;100.00
71057;BME280;58380;48.312;9.246;2023-05-09T20:43:26;93063.88;;;12.05;100.00
71057;BME280;58380;48.312;9.246;2023-05-09T20:45:51;93046.75;;;11.98;100.00
71057;BME280;58380;48.312;9.246;2023-05-09T20:48:17;93060.44;;;12.05;100.00